sensor_id;sensor_type;location;lat;lon;timestamp;P1;durP1;ratioP1;P2;durP2;ratioP2
35324;SDS011;35135;47.510;19.036;2022-07-29T00:01:05;4.18;;;2.85;;
35324;SDS011;35135;47.510;19.036;2022-07-29T00:03:34;2.92;;;2.65;;
35324;SDS011;35135;47.510;19.036;2022-07-29T00:06:02;3.75;;;2.75;;
35324;SDS011;35135;47.510;19.036;2022-07-29T00:08:31;3.55;;;2.80;;
35324;SDS011;35135;47.510;19.036;2022-07-29T00:11:02;3.15;;;2.85;;
35324;SDS011;35135;47.510;19.036;2022-07-29T00:13:32;3.65;;;2.50;;
35324;SDS011;35135;47.510;19.036;2022-07-29T00:16:02;4.13;;;2.70;;
35324;SDS011;35135;47.510;19.036;2022-07-29T00:18:31;3.20;;;2.90;;
35324;SDS011;35135;47.510;19.036;2022-07-29T00:21:00;3.20;;;2.63;;
35324;SDS011;35135;47.510;19.036;2022-07-29T00:23:28;3.08;;;2.75;;
35324;SDS011;35135;47.510;19.036;2022-07-29T00:26:00;3.83;;;2.70;;
35324;SDS011;35135;47.510;19.036;2022-07-29T00:28:29;3.15;;;2.80;;
35324;SDS011;35135;47.510;19.036;2022-07-29T00:30:57;3.35;;;3.05;;
35324;SDS011;35135;47.510;19.036;2022-07-29T00:33:26;2.83;;;2.63;;
35324;SDS011;35135;47.510;19.036;2022-07-29T00:35:55;3.13;;;2.83;;
35324;SDS011;35135;47.510;19.036;2022-07-29T00:38:26;3.35;;;2.83;;
35324;SDS011;35135;47.510;19.036;2022-07-29T00:40:54;3.30;;;2.97;;
35324;SDS011;35135;47.510;19.036;2022-07-29T00:43:23;4.38;;;3.05;;
35324;SDS011;35135;47.510;19.036;2022-07-29T00:45:53;3.50;;;2.47;;
35324;SDS011;35135;47.510;19.036;2022-07-29T00:48:26;3.65;;;2.83;;
35324;SDS011;35135;47.510;19.036;2022-07-29T00:50:55;3.80;;;2.90;;
35324;SDS011;35135;47.510;19.036;2022-07-29T00:53:30;2.72;;;2.40;;
35324;SDS011;35135;47.510;19.036;2022-07-29T00:56:04;3.13;;;2.70;;
35324;SDS011;35135;47.510;19.036;2022-07-29T00:58:33;4.30;;;2.60;;
35324;SDS011;35135;47.510;19.036;2022-07-29T01:00:59;2.60;;;2.40;;
35324;SDS011;35135;47.510;19.036;2022-07-29T01:03:28;5.05;;;2.85;;
35324;SDS011;35135;47.510;19.036;2022-07-29T01:05:57;2.97;;;2.60;;
35324;SDS011;35135;47.510;19.036;2022-07-29T01:08:26;3.22;;;2.50;;
35324;SDS011;35135;47.510;19.036;2022-07-29T01:10:55;3.75;;;2.90;;
35324;SDS011;35135;47.510;19.036;2022-07-29T01:13:24;3.63;;;2.60;;
35324;SDS011;35135;47.510;19.036;2022-07-29T01:15:59;5.82;;;2.80;;
35324;SDS011;35135;47.510;19.036;2022-07-29T01:18:49;3.60;;;2.45;;
35324;SDS011;35135;47.510;19.036;2022-07-29T01:21:27;3.33;;;2.70;;
35324;SDS011;35135;47.510;19.036;2022-07-29T01:30:11;3.03;;;2.72;;
35324;SDS011;35135;47.510;19.036;2022-07-29T01:32:40;2.90;;;2.42;;
35324;SDS011;35135;47.510;19.036;2022-07-29T01:38:11;3.22;;;2.92;;
35324;SDS011;35135;47.510;19.036;2022-07-29T01:40:58;3.30;;;2.80;;
35324;SDS011;35135;47.510;19.036;2022-07-29T01:43:39;3.80;;;2.85;;
35324;SDS011;35135;47.510;19.036;2022-07-29T01:46:44;3.42;;;2.58;;
35324;SDS011;35135;47.510;19.036;2022-07-29T01:49:20;3.60;;;2.55;;
35324;SDS011;35135;47.510;19.036;2022-07-29T01:51:51;2.88;;;2.53;;
35324;SDS011;35135;47.510;19.036;2022-07-29T01:54:45;2.63;;;2.42;;
35324;SDS011;35135;47.510;19.036;2022-07-29T01:57:28;2.75;;;2.55;;
35324;SDS011;35135;47.510;19.036;2022-07-29T01:59:58;2.97;;;2.35;;
35324;SDS011;35135;47.510;19.036;2022-07-29T02:02:28;4.10;;;2.95;;
35324;SDS011;35135;47.510;19.036;2022-07-29T02:04:59;4.82;;;3.08;;
35324;SDS011;35135;47.510;19.036;2022-07-29T02:07:34;2.90;;;2.70;;
35324;SDS011;35135;47.510;19.036;2022-07-29T02:10:03;4.00;;;2.70;;
35324;SDS011;35135;47.510;19.036;2022-07-29T02:12:42;3.95;;;2.55;;
35324;SDS011;35135;47.510;19.036;2022-07-29T02:15:11;2.92;;;2.58;;
35324;SDS011;35135;47.510;19.036;2022-07-29T02:17:45;4.00;;;2.90;;
35324;SDS011;35135;47.510;19.036;2022-07-29T02:20:19;3.63;;;2.80;;
35324;SDS011;35135;47.510;19.036;2022-07-29T02:22:48;3.05;;;2.72;;
35324;SDS011;35135;47.510;19.036;2022-07-29T02:25:19;3.10;;;2.80;;
35324;SDS011;35135;47.510;19.036;2022-07-29T02:27:50;3.40;;;2.58;;
35324;SDS011;35135;47.510;19.036;2022-07-29T02:30:24;3.90;;;2.78;;
35324;SDS011;35135;47.510;19.036;2022-07-29T02:32:55;3.05;;;2.75;;
35324;SDS011;35135;47.510;19.036;2022-07-29T02:35:25;2.83;;;2.40;;
35324;SDS011;35135;47.510;19.036;2022-07-29T02:37:54;3.35;;;2.83;;
35324;SDS011;35135;47.510;19.036;2022-07-29T02:40:42;4.78;;;2.80;;
35324;SDS011;35135;47.510;19.036;2022-07-29T02:43:12;2.92;;;2.63;;
35324;SDS011;35135;47.510;19.036;2022-07-29T02:45:39;2.83;;;2.63;;
35324;SDS011;35135;47.510;19.036;2022-07-29T02:48:13;4.82;;;2.78;;
35324;SDS011;35135;47.510;19.036;2022-07-29T02:50:50;3.90;;;2.97;;
35324;SDS011;35135;47.510;19.036;2022-07-29T02:53:23;4.00;;;2.70;;
35324;SDS011;35135;47.510;19.036;2022-07-29T02:55:56;3.00;;;2.70;;
35324;SDS011;35135;47.510;19.036;2022-07-29T02:58:49;2.80;;;2.50;;
35324;SDS011;35135;47.510;19.036;2022-07-29T03:01:30;3.58;;;2.40;;
35324;SDS011;35135;47.510;19.036;2022-07-29T03:03:59;2.83;;;2.60;;
35324;SDS011;35135;47.510;19.036;2022-07-29T03:06:36;3.50;;;2.47;;
35324;SDS011;35135;47.510;19.036;2022-07-29T03:09:04;4.88;;;2.83;;
35324;SDS011;35135;47.510;19.036;2022-07-29T03:11:41;3.10;;;2.60;;
35324;SDS011;35135;47.510;19.036;2022-07-29T03:14:08;3.33;;;2.88;;
35324;SDS011;35135;47.510;19.036;2022-07-29T03:16:38;3.50;;;2.78;;
35324;SDS011;35135;47.510;19.036;2022-07-29T03:19:07;3.92;;;2.80;;
35324;SDS011;35135;47.510;19.036;2022-07-29T03:21:38;3.13;;;2.50;;
35324;SDS011;35135;47.510;19.036;2022-07-29T03:24:06;2.92;;;2.42;;
35324;SDS011;35135;47.510;19.036;2022-07-29T03:26:39;4.00;;;2.92;;
35324;SDS011;35135;47.510;19.036;2022-07-29T03:29:08;4.13;;;3.08;;
35324;SDS011;35135;47.510;19.036;2022-07-29T03:31:39;3.78;;;2.80;;
35324;SDS011;35135;47.510;19.036;2022-07-29T03:34:08;4.03;;;3.10;;
35324;SDS011;35135;47.510;19.036;2022-07-29T03:36:43;2.97;;;2.67;;
35324;SDS011;35135;47.510;19.036;2022-07-29T03:39:15;3.90;;;2.70;;
35324;SDS011;35135;47.510;19.036;2022-07-29T03:41:52;2.70;;;2.50;;
35324;SDS011;35135;47.510;19.036;2022-07-29T03:44:24;3.20;;;2.90;;
35324;SDS011;35135;47.510;19.036;2022-07-29T03:46:55;3.38;;;2.50;;
35324;SDS011;35135;47.510;19.036;2022-07-29T03:49:27;3.83;;;2.63;;
35324;SDS011;35135;47.510;19.036;2022-07-29T03:51:57;3.60;;;2.40;;
35324;SDS011;35135;47.510;19.036;2022-07-29T03:54:25;2.70;;;2.40;;
35324;SDS011;35135;47.510;19.036;2022-07-29T03:56:52;5.75;;;2.95;;
35324;SDS011;35135;47.510;19.036;2022-07-29T03:59:21;3.78;;;3.15;;
35324;SDS011;35135;47.510;19.036;2022-07-29T04:01:48;3.15;;;2.72;;
35324;SDS011;35135;47.510;19.036;2022-07-29T04:04:17;3.97;;;3.58;;
35324;SDS011;35135;47.510;19.036;2022-07-29T04:06:46;3.08;;;2.70;;
35324;SDS011;35135;47.510;19.036;2022-07-29T04:09:16;3.83;;;2.78;;
35324;SDS011;35135;47.510;19.036;2022-07-29T04:11:45;4.60;;;3.55;;
35324;SDS011;35135;47.510;19.036;2022-07-29T04:14:20;3.40;;;3.10;;
35324;SDS011;35135;47.510;19.036;2022-07-29T04:16:48;4.15;;;3.00;;
35324;SDS011;35135;47.510;19.036;2022-07-29T04:19:19;3.20;;;2.90;;
35324;SDS011;35135;47.510;19.036;2022-07-29T04:21:48;3.50;;;3.00;;
35324;SDS011;35135;47.510;19.036;2022-07-29T04:24:16;4.43;;;2.92;;
35324;SDS011;35135;47.510;19.036;2022-07-29T04:26:47;4.03;;;2.97;;
35324;SDS011;35135;47.510;19.036;2022-07-29T04:29:15;3.72;;;3.33;;
35324;SDS011;35135;47.510;19.036;2022-07-29T04:31:54;5.35;;;3.28;;
35324;SDS011;35135;47.510;19.036;2022-07-29T04:34:23;3.75;;;2.97;;
35324;SDS011;35135;47.510;19.036;2022-07-29T04:36:53;6.30;;;3.65;;
35324;SDS011;35135;47.510;19.036;2022-07-29T04:39:27;6.20;;;3.30;;
35324;SDS011;35135;47.510;19.036;2022-07-29T04:44:30;3.42;;;2.97;;
35324;SDS011;35135;47.510;19.036;2022-07-29T04:46:57;4.13;;;3.10;;
35324;SDS011;35135;47.510;19.036;2022-07-29T04:49:25;3.78;;;2.97;;
35324;SDS011;35135;47.510;19.036;2022-07-29T04:51:56;5.45;;;2.70;;
35324;SDS011;35135;47.510;19.036;2022-07-29T04:54:35;3.40;;;3.10;;
35324;SDS011;35135;47.510;19.036;2022-07-29T04:57:07;4.00;;;2.80;;
35324;SDS011;35135;47.510;19.036;2022-07-29T04:59:36;5.18;;;3.47;;
35324;SDS011;35135;47.510;19.036;2022-07-29T05:02:14;4.57;;;2.90;;
35324;SDS011;35135;47.510;19.036;2022-07-29T05:04:43;3.13;;;2.83;;
35324;SDS011;35135;47.510;19.036;2022-07-29T05:07:11;5.22;;;3.33;;
35324;SDS011;35135;47.510;19.036;2022-07-29T05:09:43;3.80;;;3.50;;
35324;SDS011;35135;47.510;19.036;2022-07-29T05:12:16;3.65;;;3.25;;
35324;SDS011;35135;47.510;19.036;2022-07-29T05:14:45;3.65;;;3.10;;
35324;SDS011;35135;47.510;19.036;2022-07-29T05:17:20;3.38;;;3.08;;
35324;SDS011;35135;47.510;19.036;2022-07-29T05:19:52;4.72;;;2.97;;
35324;SDS011;35135;47.510;19.036;2022-07-29T05:22:21;3.83;;;3.08;;
35324;SDS011;35135;47.510;19.036;2022-07-29T05:25:04;3.40;;;3.10;;
35324;SDS011;35135;47.510;19.036;2022-07-29T05:27:33;8.30;;;3.35;;
35324;SDS011;35135;47.510;19.036;2022-07-29T05:30:08;4.75;;;3.38;;
35324;SDS011;35135;47.510;19.036;2022-07-29T05:32:37;3.40;;;3.10;;
35324;SDS011;35135;47.510;19.036;2022-07-29T05:35:06;4.10;;;3.58;;
35324;SDS011;35135;47.510;19.036;2022-07-29T05:37:32;3.97;;;3.20;;
35324;SDS011;35135;47.510;19.036;2022-07-29T05:39:59;5.43;;;3.70;;
35324;SDS011;35135;47.510;19.036;2022-07-29T05:42:28;4.60;;;3.38;;
35324;SDS011;35135;47.510;19.036;2022-07-29T05:44:57;3.60;;;3.30;;
35324;SDS011;35135;47.510;19.036;2022-07-29T05:47:27;3.65;;;3.35;;
35324;SDS011;35135;47.510;19.036;2022-07-29T05:49:55;4.85;;;3.28;;
35324;SDS011;35135;47.510;19.036;2022-07-29T05:52:24;5.65;;;3.80;;
35324;SDS011;35135;47.510;19.036;2022-07-29T05:54:51;6.60;;;3.53;;
35324;SDS011;35135;47.510;19.036;2022-07-29T05:57:21;5.13;;;3.08;;
35324;SDS011;35135;47.510;19.036;2022-07-29T05:59:50;3.85;;;3.25;;
35324;SDS011;35135;47.510;19.036;2022-07-29T06:02:20;4.57;;;3.53;;
35324;SDS011;35135;47.510;19.036;2022-07-29T06:04:57;5.47;;;3.00;;
35324;SDS011;35135;47.510;19.036;2022-07-29T06:07:26;5.43;;;3.30;;
35324;SDS011;35135;47.510;19.036;2022-07-29T06:09:53;4.38;;;3.85;;
35324;SDS011;35135;47.510;19.036;2022-07-29T06:12:20;4.05;;;3.45;;
35324;SDS011;35135;47.510;19.036;2022-07-29T06:14:51;5.40;;;3.65;;
35324;SDS011;35135;47.510;19.036;2022-07-29T06:17:22;5.18;;;3.50;;
35324;SDS011;35135;47.510;19.036;2022-07-29T06:19:52;4.57;;;3.58;;
35324;SDS011;35135;47.510;19.036;2022-07-29T06:22:29;4.03;;;3.35;;
35324;SDS011;35135;47.510;19.036;2022-07-29T06:24:58;4.68;;;3.20;;
35324;SDS011;35135;47.510;19.036;2022-07-29T06:27:27;5.07;;;3.33;;
35324;SDS011;35135;47.510;19.036;2022-07-29T06:29:56;6.00;;;3.63;;
35324;SDS011;35135;47.510;19.036;2022-07-29T06:32:22;6.78;;;4.30;;
35324;SDS011;35135;47.510;19.036;2022-07-29T06:34:52;4.55;;;3.60;;
35324;SDS011;35135;47.510;19.036;2022-07-29T06:37:21;4.45;;;3.65;;
35324;SDS011;35135;47.510;19.036;2022-07-29T06:39:49;4.88;;;3.40;;
35324;SDS011;35135;47.510;19.036;2022-07-29T06:42:42;5.15;;;3.63;;
35324;SDS011;35135;47.510;19.036;2022-07-29T06:45:11;4.30;;;3.90;;
35324;SDS011;35135;47.510;19.036;2022-07-29T06:47:38;4.15;;;3.78;;
35324;SDS011;35135;47.510;19.036;2022-07-29T06:50:11;3.72;;;3.25;;
35324;SDS011;35135;47.510;19.036;2022-07-29T06:52:40;5.15;;;4.00;;
35324;SDS011;35135;47.510;19.036;2022-07-29T06:55:14;4.65;;;3.50;;
35324;SDS011;35135;47.510;19.036;2022-07-29T06:57:45;5.00;;;3.50;;
35324;SDS011;35135;47.510;19.036;2022-07-29T07:00:13;4.90;;;3.95;;
35324;SDS011;35135;47.510;19.036;2022-07-29T07:02:43;5.22;;;4.15;;
35324;SDS011;35135;47.510;19.036;2022-07-29T07:05:12;7.03;;;3.85;;
35324;SDS011;35135;47.510;19.036;2022-07-29T07:07:39;4.55;;;3.42;;
35324;SDS011;35135;47.510;19.036;2022-07-29T07:10:07;4.00;;;3.65;;
35324;SDS011;35135;47.510;19.036;2022-07-29T07:12:38;4.45;;;3.45;;
35324;SDS011;35135;47.510;19.036;2022-07-29T07:15:04;4.95;;;3.72;;
35324;SDS011;35135;47.510;19.036;2022-07-29T07:17:38;4.30;;;3.90;;
35324;SDS011;35135;47.510;19.036;2022-07-29T07:20:09;5.70;;;4.13;;
35324;SDS011;35135;47.510;19.036;2022-07-29T07:22:42;5.72;;;3.67;;
35324;SDS011;35135;47.510;19.036;2022-07-29T07:25:15;4.20;;;3.80;;
35324;SDS011;35135;47.510;19.036;2022-07-29T07:27:47;6.28;;;3.85;;
35324;SDS011;35135;47.510;19.036;2022-07-29T07:30:18;5.97;;;4.40;;
35324;SDS011;35135;47.510;19.036;2022-07-29T07:32:52;6.10;;;3.80;;
35324;SDS011;35135;47.510;19.036;2022-07-29T07:35:23;6.20;;;4.07;;
35324;SDS011;35135;47.510;19.036;2022-07-29T07:37:58;7.53;;;4.60;;
35324;SDS011;35135;47.510;19.036;2022-07-29T07:40:29;5.63;;;3.80;;
35324;SDS011;35135;47.510;19.036;2022-07-29T07:42:58;4.45;;;3.72;;
35324;SDS011;35135;47.510;19.036;2022-07-29T07:45:33;5.10;;;3.50;;
35324;SDS011;35135;47.510;19.036;2022-07-29T07:48:03;5.43;;;3.95;;
35324;SDS011;35135;47.510;19.036;2022-07-29T07:50:31;6.82;;;4.32;;
35324;SDS011;35135;47.510;19.036;2022-07-29T07:53:00;6.95;;;3.72;;
35324;SDS011;35135;47.510;19.036;2022-07-29T07:55:29;5.28;;;3.40;;
35324;SDS011;35135;47.510;19.036;2022-07-29T07:58:09;4.68;;;3.70;;
35324;SDS011;35135;47.510;19.036;2022-07-29T08:00:37;6.05;;;4.05;;
35324;SDS011;35135;47.510;19.036;2022-07-29T08:03:06;5.20;;;4.25;;
35324;SDS011;35135;47.510;19.036;2022-07-29T08:05:33;6.20;;;4.00;;
35324;SDS011;35135;47.510;19.036;2022-07-29T08:08:01;4.82;;;3.92;;
35324;SDS011;35135;47.510;19.036;2022-07-29T08:10:28;4.75;;;3.75;;
35324;SDS011;35135;47.510;19.036;2022-07-29T08:13:19;6.70;;;4.15;;
35324;SDS011;35135;47.510;19.036;2022-07-29T08:15:50;4.90;;;4.00;;
35324;SDS011;35135;47.510;19.036;2022-07-29T08:18:30;4.72;;;3.83;;
35324;SDS011;35135;47.510;19.036;2022-07-29T08:21:01;4.93;;;4.18;;
35324;SDS011;35135;47.510;19.036;2022-07-29T08:23:30;6.15;;;4.05;;
35324;SDS011;35135;47.510;19.036;2022-07-29T08:26:08;4.20;;;3.80;;
35324;SDS011;35135;47.510;19.036;2022-07-29T08:28:37;5.18;;;4.03;;
35324;SDS011;35135;47.510;19.036;2022-07-29T08:31:06;5.22;;;3.70;;
35324;SDS011;35135;47.510;19.036;2022-07-29T08:33:35;6.32;;;3.95;;
35324;SDS011;35135;47.510;19.036;2022-07-29T08:36:04;4.18;;;3.63;;
35324;SDS011;35135;47.510;19.036;2022-07-29T08:38:34;7.03;;;4.38;;
35324;SDS011;35135;47.510;19.036;2022-07-29T08:41:05;5.70;;;4.03;;
35324;SDS011;35135;47.510;19.036;2022-07-29T08:43:31;4.28;;;3.88;;
35324;SDS011;35135;47.510;19.036;2022-07-29T08:46:03;5.97;;;3.85;;
35324;SDS011;35135;47.510;19.036;2022-07-29T08:48:31;4.60;;;4.07;;
35324;SDS011;35135;47.510;19.036;2022-07-29T08:51:00;4.28;;;3.72;;
35324;SDS011;35135;47.510;19.036;2022-07-29T08:53:33;4.82;;;4.05;;
35324;SDS011;35135;47.510;19.036;2022-07-29T08:56:13;4.07;;;3.67;;
35324;SDS011;35135;47.510;19.036;2022-07-29T08:58:42;5.35;;;4.25;;
35324;SDS011;35135;47.510;19.036;2022-07-29T09:01:13;4.38;;;3.97;;
35324;SDS011;35135;47.510;19.036;2022-07-29T09:03:47;4.63;;;4.22;;
35324;SDS011;35135;47.510;19.036;2022-07-29T09:06:15;5.40;;;4.30;;
35324;SDS011;35135;47.510;19.036;2022-07-29T09:08:48;4.13;;;3.60;;
35324;SDS011;35135;47.510;19.036;2022-07-29T09:11:15;4.93;;;4.05;;
35324;SDS011;35135;47.510;19.036;2022-07-29T09:13:45;4.93;;;3.90;;
35324;SDS011;35135;47.510;19.036;2022-07-29T09:16:14;4.60;;;4.07;;
35324;SDS011;35135;47.510;19.036;2022-07-29T09:18:41;4.53;;;4.10;;
35324;SDS011;35135;47.510;19.036;2022-07-29T09:21:10;4.40;;;4.00;;
35324;SDS011;35135;47.510;19.036;2022-07-29T09:26:28;4.32;;;3.75;;
35324;SDS011;35135;47.510;19.036;2022-07-29T09:31:56;4.43;;;4.03;;
35324;SDS011;35135;47.510;19.036;2022-07-29T09:34:25;7.18;;;3.95;;
35324;SDS011;35135;47.510;19.036;2022-07-29T09:36:57;5.55;;;4.20;;
35324;SDS011;35135;47.510;19.036;2022-07-29T09:39:38;4.00;;;3.55;;
35324;SDS011;35135;47.510;19.036;2022-07-29T09:42:12;5.57;;;4.15;;
35324;SDS011;35135;47.510;19.036;2022-07-29T09:44:48;5.07;;;4.07;;
35324;SDS011;35135;47.510;19.036;2022-07-29T09:47:17;4.60;;;3.92;;
35324;SDS011;35135;47.510;19.036;2022-07-29T09:52:26;4.45;;;4.05;;
35324;SDS011;35135;47.510;19.036;2022-07-29T09:55:16;5.20;;;4.05;;
35324;SDS011;35135;47.510;19.036;2022-07-29T09:57:44;6.05;;;3.75;;
35324;SDS011;35135;47.510;19.036;2022-07-29T10:00:15;5.05;;;4.05;;
35324;SDS011;35135;47.510;19.036;2022-07-29T10:02:46;6.75;;;4.20;;
35324;SDS011;35135;47.510;19.036;2022-07-29T10:07:50;4.68;;;4.03;;
35324;SDS011;35135;47.510;19.036;2022-07-29T10:10:40;4.50;;;4.10;;
35324;SDS011;35135;47.510;19.036;2022-07-29T10:13:09;4.38;;;3.97;;
35324;SDS011;35135;47.510;19.036;2022-07-29T10:15:40;4.32;;;3.90;;
35324;SDS011;35135;47.510;19.036;2022-07-29T10:18:10;5.13;;;3.78;;
35324;SDS011;35135;47.510;19.036;2022-07-29T10:20:39;4.50;;;4.10;;
35324;SDS011;35135;47.510;19.036;2022-07-29T10:23:06;5.50;;;3.80;;
35324;SDS011;35135;47.510;19.036;2022-07-29T10:25:36;4.20;;;3.80;;
35324;SDS011;35135;47.510;19.036;2022-07-29T10:28:12;4.65;;;4.00;;
35324;SDS011;35135;47.510;19.036;2022-07-29T10:30:44;5.07;;;3.67;;
35324;SDS011;35135;47.510;19.036;2022-07-29T10:44:29;4.13;;;3.72;;
35324;SDS011;35135;47.510;19.036;2022-07-29T10:47:01;5.40;;;4.40;;
35324;SDS011;35135;47.510;19.036;2022-07-29T10:49:32;5.40;;;4.47;;
35324;SDS011;35135;47.510;19.036;2022-07-29T10:51:59;4.53;;;3.95;;
35324;SDS011;35135;47.510;19.036;2022-07-29T10:57:24;4.95;;;4.00;;
35324;SDS011;35135;47.510;19.036;2022-07-29T11:05:16;5.28;;;4.10;;
35324;SDS011;35135;47.510;19.036;2022-07-29T11:10:43;3.83;;;3.50;;
35324;SDS011;35135;47.510;19.036;2022-07-29T11:16:18;4.03;;;3.63;;
35324;SDS011;35135;47.510;19.036;2022-07-29T11:21:53;5.43;;;3.53;;
35324;SDS011;35135;47.510;19.036;2022-07-29T11:24:22;3.97;;;3.55;;
35324;SDS011;35135;47.510;19.036;2022-07-29T11:27:13;4.80;;;3.50;;
35324;SDS011;35135;47.510;19.036;2022-07-29T11:29:57;4.15;;;3.75;;
35324;SDS011;35135;47.510;19.036;2022-07-29T11:32:40;5.90;;;3.47;;
35324;SDS011;35135;47.510;19.036;2022-07-29T11:35:20;5.38;;;3.55;;
35324;SDS011;35135;47.510;19.036;2022-07-29T11:43:50;3.85;;;3.38;;
35324;SDS011;35135;47.510;19.036;2022-07-29T11:49:07;5.13;;;3.55;;
35324;SDS011;35135;47.510;19.036;2022-07-29T11:51:37;3.50;;;3.20;;
35324;SDS011;35135;47.510;19.036;2022-07-29T11:54:09;4.38;;;3.03;;
35324;SDS011;35135;47.510;19.036;2022-07-29T11:56:43;4.00;;;3.10;;
35324;SDS011;35135;47.510;19.036;2022-07-29T11:59:14;5.13;;;3.10;;
35324;SDS011;35135;47.510;19.036;2022-07-29T12:02:04;5.22;;;3.70;;
35324;SDS011;35135;47.510;19.036;2022-07-29T12:04:56;3.50;;;3.17;;
35324;SDS011;35135;47.510;19.036;2022-07-29T12:07:27;4.50;;;3.13;;
35324;SDS011;35135;47.510;19.036;2022-07-29T12:09:59;4.03;;;3.35;;
35324;SDS011;35135;47.510;19.036;2022-07-29T12:12:35;3.38;;;3.05;;
35324;SDS011;35135;47.510;19.036;2022-07-29T12:15:17;3.92;;;3.30;;
35324;SDS011;35135;47.510;19.036;2022-07-29T12:17:50;3.47;;;3.00;;
35324;SDS011;35135;47.510;19.036;2022-07-29T12:20:23;6.20;;;3.65;;
35324;SDS011;35135;47.510;19.036;2022-07-29T12:22:54;3.53;;;3.22;;
35324;SDS011;35135;47.510;19.036;2022-07-29T12:25:23;4.43;;;3.28;;
35324;SDS011;35135;47.510;19.036;2022-07-29T12:27:59;4.65;;;3.35;;
35324;SDS011;35135;47.510;19.036;2022-07-29T12:30:40;3.72;;;3.40;;
35324;SDS011;35135;47.510;19.036;2022-07-29T12:33:18;4.47;;;3.47;;
35324;SDS011;35135;47.510;19.036;2022-07-29T12:36:03;6.10;;;3.42;;
35324;SDS011;35135;47.510;19.036;2022-07-29T12:38:32;3.30;;;3.00;;
35324;SDS011;35135;47.510;19.036;2022-07-29T12:41:06;4.38;;;3.00;;
35324;SDS011;35135;47.510;19.036;2022-07-29T12:43:36;3.92;;;2.97;;
35324;SDS011;35135;47.510;19.036;2022-07-29T12:46:13;4.18;;;3.13;;
35324;SDS011;35135;47.510;19.036;2022-07-29T12:48:42;4.93;;;3.45;;
35324;SDS011;35135;47.510;19.036;2022-07-29T12:51:10;3.28;;;2.97;;
35324;SDS011;35135;47.510;19.036;2022-07-29T12:53:39;5.35;;;3.00;;
35324;SDS011;35135;47.510;19.036;2022-07-29T12:56:14;3.17;;;2.85;;
35324;SDS011;35135;47.510;19.036;2022-07-29T12:58:42;3.55;;;2.97;;
35324;SDS011;35135;47.510;19.036;2022-07-29T13:01:11;4.07;;;2.72;;
35324;SDS011;35135;47.510;19.036;2022-07-29T13:03:54;3.58;;;3.28;;
35324;SDS011;35135;47.510;19.036;2022-07-29T13:06:39;3.85;;;3.05;;
35324;SDS011;35135;47.510;19.036;2022-07-29T13:09:18;3.85;;;3.05;;
35324;SDS011;35135;47.510;19.036;2022-07-29T13:11:50;3.85;;;3.03;;
35324;SDS011;35135;47.510;19.036;2022-07-29T13:14:35;4.10;;;3.00;;
35324;SDS011;35135;47.510;19.036;2022-07-29T13:17:18;4.60;;;3.28;;
35324;SDS011;35135;47.510;19.036;2022-07-29T13:20:08;4.25;;;2.75;;
35324;SDS011;35135;47.510;19.036;2022-07-29T13:22:40;3.90;;;2.92;;
35324;SDS011;35135;47.510;19.036;2022-07-29T13:25:11;4.20;;;3.10;;
35324;SDS011;35135;47.510;19.036;2022-07-29T13:28:05;3.25;;;2.95;;
35324;SDS011;35135;47.510;19.036;2022-07-29T13:30:37;4.88;;;3.08;;
35324;SDS011;35135;47.510;19.036;2022-07-29T13:33:06;3.55;;;3.10;;
35324;SDS011;35135;47.510;19.036;2022-07-29T13:35:34;3.35;;;2.80;;
35324;SDS011;35135;47.510;19.036;2022-07-29T13:38:12;4.35;;;2.72;;
35324;SDS011;35135;47.510;19.036;2022-07-29T13:40:45;4.60;;;2.85;;
35324;SDS011;35135;47.510;19.036;2022-07-29T13:43:18;3.10;;;2.80;;
35324;SDS011;35135;47.510;19.036;2022-07-29T13:45:53;3.58;;;3.15;;
35324;SDS011;35135;47.510;19.036;2022-07-29T13:48:22;3.15;;;2.83;;
35324;SDS011;35135;47.510;19.036;2022-07-29T13:50:51;5.68;;;3.17;;
35324;SDS011;35135;47.510;19.036;2022-07-29T13:53:19;3.33;;;3.00;;
35324;SDS011;35135;47.510;19.036;2022-07-29T13:55:48;3.72;;;3.30;;
35324;SDS011;35135;47.510;19.036;2022-07-29T13:58:18;3.83;;;3.25;;
35324;SDS011;35135;47.510;19.036;2022-07-29T14:00:45;4.35;;;2.83;;
35324;SDS011;35135;47.510;19.036;2022-07-29T14:03:12;3.85;;;3.20;;
35324;SDS011;35135;47.510;19.036;2022-07-29T14:05:42;6.10;;;3.22;;
35324;SDS011;35135;47.510;19.036;2022-07-29T14:08:15;4.88;;;3.50;;
35324;SDS011;35135;47.510;19.036;2022-07-29T14:10:44;3.42;;;3.08;;
35324;SDS011;35135;47.510;19.036;2022-07-29T14:13:12;3.78;;;3.40;;
35324;SDS011;35135;47.510;19.036;2022-07-29T14:15:55;3.38;;;3.08;;
35324;SDS011;35135;47.510;19.036;2022-07-29T14:18:24;3.25;;;2.92;;
35324;SDS011;35135;47.510;19.036;2022-07-29T14:20:51;3.40;;;3.10;;
35324;SDS011;35135;47.510;19.036;2022-07-29T14:23:22;3.75;;;3.13;;
35324;SDS011;35135;47.510;19.036;2022-07-29T14:25:51;4.53;;;3.80;;
35324;SDS011;35135;47.510;19.036;2022-07-29T14:28:18;3.45;;;3.15;;
35324;SDS011;35135;47.510;19.036;2022-07-29T14:30:53;3.40;;;2.88;;
35324;SDS011;35135;47.510;19.036;2022-07-29T14:33:20;4.03;;;3.25;;
35324;SDS011;35135;47.510;19.036;2022-07-29T14:35:51;3.73;;;3.00;;
35324;SDS011;35135;47.510;19.036;2022-07-29T14:38:20;4.40;;;3.20;;
35324;SDS011;35135;47.510;19.036;2022-07-29T14:40:49;3.83;;;3.42;;
35324;SDS011;35135;47.510;19.036;2022-07-29T14:43:15;3.63;;;2.97;;
35324;SDS011;35135;47.510;19.036;2022-07-29T14:45:41;3.83;;;3.05;;
35324;SDS011;35135;47.510;19.036;2022-07-29T14:48:06;5.10;;;3.05;;
35324;SDS011;35135;47.510;19.036;2022-07-29T14:50:32;4.90;;;3.25;;
35324;SDS011;35135;47.510;19.036;2022-07-29T14:53:01;3.95;;;3.50;;
35324;SDS011;35135;47.510;19.036;2022-07-29T14:55:27;3.92;;;3.30;;
35324;SDS011;35135;47.510;19.036;2022-07-29T14:57:53;4.32;;;2.90;;
35324;SDS011;35135;47.510;19.036;2022-07-29T15:00:19;3.92;;;3.30;;
35324;SDS011;35135;47.510;19.036;2022-07-29T15:02:46;5.53;;;3.50;;
35324;SDS011;35135;47.510;19.036;2022-07-29T15:05:13;3.65;;;3.13;;
35324;SDS011;35135;47.510;19.036;2022-07-29T15:10:22;5.22;;;3.03;;
35324;SDS011;35135;47.510;19.036;2022-07-29T15:12:54;4.05;;;2.97;;
35324;SDS011;35135;47.510;19.036;2022-07-29T15:15:23;3.92;;;3.08;;
35324;SDS011;35135;47.510;19.036;2022-07-29T15:17:54;3.42;;;3.00;;
35324;SDS011;35135;47.510;19.036;2022-07-29T15:20:23;3.50;;;3.15;;
35324;SDS011;35135;47.510;19.036;2022-07-29T15:22:55;4.47;;;3.40;;
35324;SDS011;35135;47.510;19.036;2022-07-29T15:25:24;3.95;;;3.08;;
35324;SDS011;35135;47.510;19.036;2022-07-29T15:28:02;3.50;;;3.20;;
35324;SDS011;35135;47.510;19.036;2022-07-29T15:30:33;3.25;;;2.95;;
35324;SDS011;35135;47.510;19.036;2022-07-29T15:33:06;3.50;;;3.03;;
35324;SDS011;35135;47.510;19.036;2022-07-29T15:35:38;3.85;;;3.28;;
35324;SDS011;35135;47.510;19.036;2022-07-29T15:38:08;3.22;;;2.92;;
35324;SDS011;35135;47.510;19.036;2022-07-29T15:40:41;3.55;;;2.90;;
35324;SDS011;35135;47.510;19.036;2022-07-29T15:43:11;5.53;;;3.78;;
35324;SDS011;35135;47.510;19.036;2022-07-29T15:45:41;3.30;;;3.00;;
35324;SDS011;35135;47.510;19.036;2022-07-29T15:48:29;4.00;;;3.22;;
35324;SDS011;35135;47.510;19.036;2022-07-29T15:50:59;3.75;;;3.38;;
35324;SDS011;35135;47.510;19.036;2022-07-29T15:53:28;3.40;;;3.10;;
35324;SDS011;35135;47.510;19.036;2022-07-29T15:56:00;4.05;;;3.33;;
35324;SDS011;35135;47.510;19.036;2022-07-29T15:58:28;5.68;;;3.53;;
35324;SDS011;35135;47.510;19.036;2022-07-29T16:01:02;4.30;;;3.20;;
35324;SDS011;35135;47.510;19.036;2022-07-29T16:03:32;3.40;;;2.97;;